Time;durP1;ratioP1;P1;durP2;ratioP2;P2;SDS_P1;SDS_P2;PMS_P1;PMS_P2;Temp;Humidity;BMP_temperature;BMP_pressure;BME280_temperature;BME280_humidity;BME280_pressure;Samples;Min_cycle;Max_cycle;Signal;HPM_P1;HPM_P2
2021/12/05 00:23:47;;;;;;;53.28;34.88;;;;;;;;;;5111244;27;20215;-79
2021/12/05 00:26:17;;;;;;;55.20;32.42;;;;;;;;;;5093036;27;20037;-78
2021/12/05 00:31:26;;;;;;;48.25;33.85;;;;;;;;;;5111456;27;20027;-79
2021/12/05 00:39:46;;;;;;;90.63;44.30;;;;;;;;;;5111761;28;21234;-79
2021/12/05 01:03:42;;;;;;;50.75;31.30;;;;;;;;;;5101306;28;20038;-79
2021/12/05 01:08:58;;;;;;;48.15;27.10;;;;;;;;;;5101328;28;20094;-79
2021/12/05 01:16:41;;;;;;;46.78;24.17;;;;;;;;;;5101834;28;20859;-79
2021/12/05 01:19:08;;;;;;;62.85;34.58;;;;;;;;;;5081568;28;20507;-78
2021/12/05 01:21:35;;;;;;;85.72;40.47;;;;;;;;;;5101903;27;20073;-79
2021/12/05 01:24:20;;;;;;;125.28;60.30;;;;;;;;;;5085042;27;20038;-78
2021/12/05 01:27:03;;;;;;;72.75;35.38;;;;;;;;;;5085265;27;20119;-78
2021/12/05 01:29:49;;;;;;;60.33;33.55;;;;;;;;;;5086552;27;20038;-79
2021/12/05 01:32:46;;;;;;;57.33;30.00;;;;;;;;;;5105174;27;20024;-79
2021/12/05 01:43:31;;;;;;;49.03;24.17;;;;;;;;;;5104618;27;20054;-78
2021/12/05 01:49:21;;;;;;;49.78;26.52;;;;;;;;;;5104758;27;20034;-78
2021/12/05 01:52:16;;;;;;;42.83;23.70;;;;;;;;;;5091712;27;20053;-78
2021/12/05 01:59:51;;;;;;;49.20;24.98;;;;;;;;;;5114266;27;20031;-78
2021/12/05 02:03:12;;;;;;;51.53;26.17;;;;;;;;;;5114952;27;20034;-78
2021/12/05 02:39:53;;;;;;;47.70;24.27;;;;;;;;;;5114685;27;20030;-78
2021/12/05 02:42:32;;;;;;;46.05;24.95;;;;;;;;;;5094160;27;20027;-79
2021/12/05 02:44:58;;;;;;;49.90;25.58;;;;;;;;;;5113968;27;20027;-79
2021/12/05 02:47:25;;;;;;;50.85;25.02;;;;;;;;;;5094426;27;20119;-78
2021/12/05 02:49:52;;;;;;;56.30;25.35;;;;;;;;;;5093928;27;20067;-79
2021/12/05 02:52:24;;;;;;;50.22;25.98;;;;;;;;;;5094649;27;20087;-79
2021/12/05 02:54:52;;;;;;;53.05;24.63;;;;;;;;;;5113192;27;20106;-79
2021/12/05 02:57:24;;;;;;;43.92;23.40;;;;;;;;;;5093705;27;20473;-79
2021/12/05 02:59:55;;;;;;;55.55;25.27;;;;;;;;;;5093949;27;20123;-79
2021/12/05 03:02:26;;;;;;;54.22;25.83;;;;;;;;;;5093486;27;20035;-78
2021/12/05 03:04:54;;;;;;;46.42;23.85;;;;;;;;;;5093828;27;20034;-79
2021/12/05 03:07:26;;;;;;;54.38;25.92;;;;;;;;;;5113345;27;20397;-79
2021/12/05 03:09:51;;;;;;;56.90;25.48;;;;;;;;;;5094024;27;20023;-79
2021/12/05 03:12:18;;;;;;;58.78;26.30;;;;;;;;;;5094320;27;20038;-78
2021/12/05 03:14:45;;;;;;;66.05;30.92;;;;;;;;;;5093871;27;20118;-79
2021/12/05 03:17:10;;;;;;;70.53;32.97;;;;;;;;;;5093118;27;20083;-80
2021/12/05 03:19:36;;;;;;;72.20;33.85;;;;;;;;;;5093788;27;20462;-79
2021/12/05 03:22:01;;;;;;;67.78;31.77;;;;;;;;;;5093748;27;20043;-79
2021/12/05 03:24:27;;;;;;;67.60;30.83;;;;;;;;;;5113164;27;20685;-79
2021/12/05 03:26:53;;;;;;;70.78;32.50;;;;;;;;;;5093384;27;20027;-80
2021/12/05 03:29:19;;;;;;;63.40;30.50;;;;;;;;;;5112886;27;20072;-79
2021/12/05 03:31:45;;;;;;;56.53;27.52;;;;;;;;;;5112150;27;20027;-79
2021/12/05 03:34:12;;;;;;;51.78;24.05;;;;;;;;;;5092602;27;20030;-79
2021/12/05 03:36:39;;;;;;;44.78;22.58;;;;;;;;;;5093165;27;20060;-79
2021/12/05 03:39:05;;;;;;;41.42;21.88;;;;;;;;;;5093131;27;20025;-79
2021/12/05 03:41:31;;;;;;;48.20;23.92;;;;;;;;;;5092924;27;20027;-79
2021/12/05 03:43:56;;;;;;;38.92;19.70;;;;;;;;;;5093221;27;20037;-80
2021/12/05 03:46:23;;;;;;;37.40;20.60;;;;;;;;;;5110854;27;20031;-78
2021/12/05 03:48:52;;;;;;;38.10;20.17;;;;;;;;;;5093586;27;20076;-79
2021/12/05 03:51:19;;;;;;;42.65;22.30;;;;;;;;;;5093404;27;20385;-79
2021/12/05 03:53:45;;;;;;;42.10;21.48;;;;;;;;;;5092160;27;20035;-80
2021/12/05 03:56:11;;;;;;;42.55;21.20;;;;;;;;;;5091888;27;20015;-79
2021/12/05 03:58:37;;;;;;;38.58;20.38;;;;;;;;;;5083143;27;20046;-79
2021/12/05 04:01:03;;;;;;;41.40;19.73;;;;;;;;;;5101752;27;20628;-79
2021/12/05 04:03:29;;;;;;;46.20;22.40;;;;;;;;;;5102073;27;20113;-80
2021/12/05 04:05:55;;;;;;;38.92;20.27;;;;;;;;;;5101790;27;20688;-80
2021/12/05 04:08:21;;;;;;;36.83;21.70;;;;;;;;;;5102023;27;20055;-79
2021/12/05 04:10:48;;;;;;;53.33;24.50;;;;;;;;;;5082641;27;20150;-79
2021/12/05 04:13:15;;;;;;;39.95;21.10;;;;;;;;;;5082306;27;20031;-79
2021/12/05 04:15:40;;;;;;;42.30;21.40;;;;;;;;;;5082441;27;20536;-79
2021/12/05 04:18:06;;;;;;;36.80;19.95;;;;;;;;;;5083672;27;20031;-79
2021/12/05 04:20:31;;;;;;;37.92;19.75;;;;;;;;;;5083589;28;20463;-81
2021/12/05 04:22:57;;;;;;;46.85;24.45;;;;;;;;;;5083037;28;20142;-81
2021/12/05 04:25:23;;;;;;;45.03;23.45;;;;;;;;;;5083228;27;20083;-78
2021/12/05 04:27:50;;;;;;;40.00;21.52;;;;;;;;;;5082327;27;20019;-79
2021/12/05 04:30:17;;;;;;;40.40;20.27;;;;;;;;;;5101518;27;20062;-79
2021/12/05 04:32:43;;;;;;;40.90;21.58;;;;;;;;;;5101680;27;20073;-78
2021/12/05 04:35:09;;;;;;;41.42;21.05;;;;;;;;;;5101651;27;20439;-78
2021/12/05 04:37:34;;;;;;;40.88;21.77;;;;;;;;;;5082610;28;20030;-79
2021/12/05 04:39:59;;;;;;;36.35;19.75;;;;;;;;;;5082672;28;20027;-79
2021/12/05 04:42:25;;;;;;;33.67;18.85;;;;;;;;;;5082270;28;20144;-79
2021/12/05 04:44:51;;;;;;;37.15;20.27;;;;;;;;;;5100996;28;20048;-79
2021/12/05 04:47:17;;;;;;;37.50;19.80;;;;;;;;;;5083142;28;20042;-79
2021/12/05 04:49:43;;;;;;;31.15;16.98;;;;;;;;;;5082509;28;20405;-79
2021/12/05 04:52:10;;;;;;;39.90;19.85;;;;;;;;;;5102281;28;20031;-79
2021/12/05 04:54:35;;;;;;;42.47;19.63;;;;;;;;;;5082447;28;20049;-81
2021/12/05 04:57:01;;;;;;;43.13;21.50;;;;;;;;;;5084115;28;20050;-80
2021/12/05 04:59:28;;;;;;;36.63;18.23;;;;;;;;;;5095684;28;20023;-81
2021/12/05 05:01:57;;;;;;;39.95;19.85;;;;;;;;;;5094103;28;20023;-81
2021/12/05 05:04:27;;;;;;;43.35;20.52;;;;;;;;;;5093835;28;20046;-80
2021/12/05 05:06:53;;;;;;;33.63;18.35;;;;;;;;;;5094333;28;20187;-80
2021/12/05 05:09:19;;;;;;;39.95;19.75;;;;;;;;;;5095201;28;20019;-81
2021/12/05 05:11:44;;;;;;;42.83;23.55;;;;;;;;;;5095134;28;20031;-80
2021/12/05 05:14:11;;;;;;;49.55;23.23;;;;;;;;;;5093438;28;20032;-80
2021/12/05 05:16:36;;;;;;;37.78;20.30;;;;;;;;;;5093004;28;20028;-80
2021/12/05 05:19:03;;;;;;;37.13;19.25;;;;;;;;;;5093477;28;20496;-80
2021/12/05 05:21:52;;;;;;;66.07;35.05;;;;;;;;;;5094191;28;20135;-80
2021/12/05 05:29:33;;;;;;;105.47;52.60;;;;;;;;;;5094755;28;20032;-79
2021/12/05 05:40:53;;;;;;;140.82;52.85;;;;;;;;;;5049332;28;20031;-78
2021/12/05 05:48:31;;;;;;;130.75;47.65;;;;;;;;;;5094379;28;20053;-78
2021/12/05 05:50:57;;;;;;;70.25;32.22;;;;;;;;;;5093861;28;20035;-78
2021/12/05 05:53:22;;;;;;;69.88;35.40;;;;;;;;;;5092994;28;20031;-79
2021/12/05 05:55:48;;;;;;;70.50;30.10;;;;;;;;;;5094264;28;20051;-78
2021/12/05 05:58:16;;;;;;;176.00;82.38;;;;;;;;;;5084826;27;20054;-76
2021/12/05 06:00:57;;;;;;;171.50;79.95;;;;;;;;;;5103941;27;20027;-75
2021/12/05 06:03:23;;;;;;;102.65;49.72;;;;;;;;;;5104283;27;20027;-74
2021/12/05 06:05:55;;;;;;;72.15;35.90;;;;;;;;;;5084628;27;20023;-74
2021/12/05 06:08:23;;;;;;;317.83;139.38;;;;;;;;;;5084117;27;20027;-77
2021/12/05 06:10:49;;;;;;;508.05;242.13;;;;;;;;;;5103947;27;20019;-74
2021/12/05 06:13:16;;;;;;;329.63;130.57;;;;;;;;;;5103390;27;20027;-74
2021/12/05 06:15:41;;;;;;;89.30;40.58;;;;;;;;;;5104591;27;20529;-77
2021/12/05 06:18:07;;;;;;;83.25;38.53;;;;;;;;;;5103708;27;20098;-74
2021/12/05 06:20:32;;;;;;;68.05;32.47;;;;;;;;;;5084743;27;20129;-74
2021/12/05 06:22:58;;;;;;;69.10;32.28;;;;;;;;;;5085218;27;20374;-73
2021/12/05 06:25:26;;;;;;;64.18;31.58;;;;;;;;;;5084817;27;20035;-75
2021/12/05 06:27:53;;;;;;;454.73;359.80;;;;;;;;;;5103614;27;20038;-74
2021/12/05 06:38:53;;;;;;;138.73;86.38;;;;;;;;;;5103687;27;20080;-74
2021/12/05 06:48:43;;;;;;;49.58;24.08;;;;;;;;;;5103201;27;20564;-75
2021/12/05 06:51:08;;;;;;;;;;;;;;;;;;5084446;27;20015;-75
2021/12/05 06:53:33;;;;;;;48.17;24.13;;;;;;;;;;5091994;27;20758;-79
2021/12/05 06:55:58;;;;;;;51.72;24.80;;;;;;;;;;5097182;27;20582;-76
2021/12/05 06:58:24;;;;;;;43.47;21.10;;;;;;;;;;5116097;27;20082;-77
2021/12/05 07:00:49;;;;;;;56.15;24.95;;;;;;;;;;5099183;27;20027;-77
2021/12/05 07:03:15;;;;;;;62.08;35.17;;;;;;;;;;5117135;27;20114;-76
2021/12/05 07:05:57;;;;;;;91.22;49.45;;;;;;;;;;5117433;27;20054;-80
2021/12/05 07:08:26;;;;;;;190.45;81.07;;;;;;;;;;5099037;27;21054;-77
2021/12/05 07:10:58;;;;;;;257.13;129.52;;;;;;;;;;5094532;28;20027;-79
2021/12/05 07:21:19;;;;;;;157.85;60.63;;;;;;;;;;5093544;28;20063;-77
2021/12/05 07:42:38;;;;;;;61.53;35.70;;;;;;;;;;5096646;28;20042;-76
2021/12/05 07:45:05;;;;;;;48.80;26.08;;;;;;;;;;5077555;28;20359;-76
2021/12/05 07:47:33;;;;;;;56.97;31.77;;;;;;;;;;5077679;28;20072;-79
2021/12/05 07:50:07;;;;;;;67.78;37.00;;;;;;;;;;5077660;28;20131;-76
2021/12/05 07:52:33;;;;;;;117.82;51.95;;;;;;;;;;5096005;28;20110;-79
2021/12/05 07:55:11;;;;;;;75.50;34.38;;;;;;;;;;5077605;28;20030;-77
2021/12/05 08:16:47;;;;;;;66.00;36.30;;;;;;;;;;5116268;27;20026;-79
2021/12/05 08:19:13;;;;;;;121.47;67.53;;;;;;;;;;5097590;27;20030;-76
2021/12/05 08:21:38;;;;;;;78.47;45.17;;;;;;;;;;5097745;27;20027;-80
2021/12/05 08:24:04;;;;;;;69.75;39.25;;;;;;;;;;5097917;27;20026;-80
2021/12/05 08:26:33;;;;;;;77.90;42.85;;;;;;;;;;5097132;27;20038;-76
2021/12/05 08:29:13;;;;;;;83.18;46.45;;;;;;;;;;5116106;27;20097;-77
2021/12/05 08:32:11;;;;;;;107.90;57.72;;;;;;;;;;5115344;27;20520;-76
2021/12/05 10:03:23;;;;;;;108.53;57.80;;;;;;;;;;5098123;28;20489;-79
2021/12/05 10:08:44;;;;;;;117.72;65.13;;;;;;;;;;5098416;28;20038;-79
2021/12/05 10:11:26;;;;;;;125.40;65.57;;;;;;;;;;5079590;28;20016;-79
2021/12/05 10:14:15;;;;;;;78.72;40.63;;;;;;;;;;5097986;28;20041;-79
2021/12/05 10:16:56;;;;;;;132.05;74.45;;;;;;;;;;5097834;28;20020;-78
2021/12/05 10:38:35;;;;;;;66.97;39.58;;;;;;;;;;5097294;28;20477;-78
2021/12/05 10:43:41;;;;;;;51.88;29.83;;;;;;;;;;5097405;28;20042;-77
2021/12/05 10:46:11;;;;;;;53.42;33.13;;;;;;;;;;5079041;28;20039;-78
2021/12/05 10:48:38;;;;;;;70.68;43.90;;;;;;;;;;5078964;28;20478;-78
2021/12/05 10:51:06;;;;;;;73.05;46.08;;;;;;;;;;5097051;28;20045;-78
2021/12/05 10:53:31;;;;;;;79.63;51.92;;;;;;;;;;5078650;28;20023;-78
2021/12/05 10:55:57;;;;;;;76.78;47.63;;;;;;;;;;5078652;28;20073;-78
2021/12/05 10:58:28;;;;;;;78.15;49.75;;;;;;;;;;5079153;28;20050;-78
2021/12/05 11:01:04;;;;;;;64.78;39.47;;;;;;;;;;5078952;28;20035;-78
2021/12/05 11:03:29;;;;;;;80.80;48.83;;;;;;;;;;5078488;28;20043;-78
2021/12/05 11:05:55;;;;;;;75.43;45.75;;;;;;;;;;5079951;28;20035;-78
2021/12/05 11:08:50;;;;;;;61.92;38.80;;;;;;;;;;5078361;28;20020;-77
2021/12/05 11:11:16;;;;;;;43.90;30.17;;;;;;;;;;5078092;28;20039;-78
2021/12/05 11:13:43;;;;;;;49.30;32.55;;;;;;;;;;5078094;28;20417;-78
2021/12/05 11:16:27;;;;;;;43.17;27.23;;;;;;;;;;5078370;28;20015;-78
2021/12/05 11:18:53;;;;;;;44.78;28.65;;;;;;;;;;5095440;28;20110;-78
2021/12/05 11:21:35;;;;;;;40.13;26.55;;;;;;;;;;5077911;28;20118;-78
2021/12/05 11:24:07;;;;;;;39.22;24.20;;;;;;;;;;5078681;28;20519;-78
2021/12/05 11:26:34;;;;;;;49.30;30.90;;;;;;;;;;5096940;28;20028;-78
2021/12/05 11:28:59;;;;;;;42.38;27.48;;;;;;;;;;5078070;28;20122;-78
2021/12/05 11:31:25;;;;;;;46.85;30.85;;;;;;;;;;5078627;28;20243;-78
2021/12/05 11:33:54;;;;;;;54.50;34.58;;;;;;;;;;5078037;28;20035;-78
2021/12/05 11:36:23;;;;;;;46.90;29.33;;;;;;;;;;5077975;28;20027;-78
2021/12/05 11:38:49;;;;;;;49.58;30.35;;;;;;;;;;5096319;28;20454;-78
2021/12/05 11:41:20;;;;;;;44.95;28.63;;;;;;;;;;5077550;28;20023;-78
2021/12/05 11:43:54;;;;;;;43.38;30.25;;;;;;;;;;5078112;28;20031;-78
2021/12/05 11:46:22;;;;;;;39.00;25.83;;;;;;;;;;5096363;28;20466;-77
2021/12/05 11:48:48;;;;;;;70.57;50.45;;;;;;;;;;5077163;28;20132;-77
2021/12/05 11:51:24;;;;;;;44.42;32.08;;;;;;;;;;5096207;28;20055;-77
2021/12/05 11:53:54;;;;;;;49.50;34.85;;;;;;;;;;5095758;28;20394;-78
2021/12/05 11:56:36;;;;;;;59.10;38.28;;;;;;;;;;5079941;27;20127;-77
2021/12/05 11:59:24;;;;;;;47.35;30.13;;;;;;;;;;5116336;27;20354;-78
2021/12/05 12:01:59;;;;;;;42.63;25.83;;;;;;;;;;5098150;27;20156;-77
2021/12/05 12:04:26;;;;;;;43.30;26.83;;;;;;;;;;5097739;27;20094;-78
2021/12/05 12:07:06;;;;;;;39.05;24.95;;;;;;;;;;5115358;27;20544;-77
2021/12/05 12:09:31;;;;;;;40.83;26.88;;;;;;;;;;5116500;27;20364;-77
2021/12/05 12:11:57;;;;;;;44.75;26.67;;;;;;;;;;5097929;27;20023;-77
2021/12/05 12:14:22;;;;;;;37.08;26.25;;;;;;;;;;5116420;27;20026;-77
2021/12/05 12:16:50;;;;;;;35.75;25.55;;;;;;;;;;5097634;27;20081;-77
2021/12/05 12:19:21;;;;;;;29.73;19.90;;;;;;;;;;5097680;28;20051;-77
2021/12/05 12:21:48;;;;;;;35.92;22.85;;;;;;;;;;5116233;27;20023;-77
2021/12/05 12:24:15;;;;;;;36.75;24.75;;;;;;;;;;5097398;27;20023;-77
2021/12/05 12:26:42;;;;;;;35.50;23.63;;;;;;;;;;5097312;27;20023;-77
2021/12/05 12:29:09;;;;;;;41.28;25.50;;;;;;;;;;5116830;27;20477;-77
2021/12/05 12:31:36;;;;;;;42.70;28.65;;;;;;;;;;5097283;27;20019;-77
2021/12/05 12:34:04;;;;;;;81.40;51.63;;;;;;;;;;5097431;27;20031;-77
2021/12/05 12:36:33;;;;;;;49.20;32.90;;;;;;;;;;5098503;28;20023;-77
2021/12/05 12:39:04;;;;;;;37.75;25.35;;;;;;;;;;5097087;27;20023;-78
2021/12/05 12:41:30;;;;;;;38.50;25.45;;;;;;;;;;5117288;28;20038;-77
2021/12/05 12:43:55;;;;;;;34.50;24.67;;;;;;;;;;5096708;28;20031;-78
2021/12/05 12:46:20;;;;;;;37.92;25.30;;;;;;;;;;5096722;28;20142;-77
2021/12/05 12:48:47;;;;;;;39.17;25.70;;;;;;;;;;5115604;28;20563;-77
2021/12/05 12:51:27;;;;;;;47.08;33.45;;;;;;;;;;5115409;28;20027;-77
2021/12/05 12:53:54;;;;;;;34.92;24.65;;;;;;;;;;5098364;28;20023;-77
2021/12/05 12:56:22;;;;;;;33.25;23.13;;;;;;;;;;5097448;27;20142;-77
2021/12/05 12:58:54;;;;;;;24.73;17.60;;;;;;;;;;5115156;28;20365;-77
2021/12/05 13:12:45;;;;;;;35.28;25.15;;;;;;;;;;5115375;28;20038;-77
2021/12/05 13:15:12;;;;;;;45.88;31.77;;;;;;;;;;5104327;28;20031;-77
2021/12/05 13:17:42;;;;;;;34.65;24.13;;;;;;;;;;5116723;27;20023;-77
2021/12/05 13:20:07;;;;;;;;;;;;;;;;;;5120235;27;20019;-77
2021/12/05 13:22:33;;;;;;;28.27;19.73;;;;;;;;;;5119403;27;19914;-77
2021/12/05 13:25:06;;;;;;;28.10;18.25;;;;;;;;;;5119556;27;20385;-77
2021/12/05 13:27:32;;;;;;;30.52;21.60;;;;;;;;;;5100504;27;20023;-77
2021/12/05 13:29:59;;;;;;;31.88;21.13;;;;;;;;;;5118819;27;20067;-77
2021/12/05 13:32:27;;;;;;;30.40;19.67;;;;;;;;;;5119542;27;20093;-78
2021/12/05 13:34:52;;;;;;;42.38;30.15;;;;;;;;;;5118800;27;20079;-77
2021/12/05 13:37:26;;;;;;;44.90;29.73;;;;;;;;;;5100592;27;20118;-77
2021/12/05 13:39:54;;;;;;;32.00;19.98;;;;;;;;;;5120086;27;20386;-78
2021/12/05 13:42:43;;;;;;;53.13;37.38;;;;;;;;;;5100397;27;20084;-77
2021/12/05 13:45:32;;;;;;;38.78;26.75;;;;;;;;;;5119403;27;20114;-77
2021/12/05 13:48:00;;;;;;;49.08;33.47;;;;;;;;;;5106817;27;20035;-78
2021/12/05 13:50:28;;;;;;;47.08;29.92;;;;;;;;;;5119225;27;20720;-77
2021/12/05 13:52:56;;;;;;;47.28;31.10;;;;;;;;;;5100184;27;20019;-77
2021/12/05 13:55:34;;;;;;;42.42;27.60;;;;;;;;;;5100102;27;20023;-77
2021/12/05 13:58:18;;;;;;;43.33;29.15;;;;;;;;;;5100007;27;20124;-77
2021/12/05 14:00:46;;;;;;;48.45;31.92;;;;;;;;;;5119113;27;20023;-77
2021/12/05 14:03:12;;;;;;;41.42;26.45;;;;;;;;;;5118749;27;20031;-78
2021/12/05 14:05:45;;;;;;;45.13;30.13;;;;;;;;;;5118798;27;20114;-78
2021/12/05 14:08:10;;;;;;;44.40;31.85;;;;;;;;;;5119116;27;20019;-77
2021/12/05 14:10:43;;;;;;;39.30;25.67;;;;;;;;;;5099887;27;20064;-77
2021/12/05 14:13:10;;;;;;;36.65;26.77;;;;;;;;;;5100046;27;20026;-77
2021/12/05 14:15:35;;;;;;;42.67;28.45;;;;;;;;;;5118247;27;20023;-77
2021/12/05 14:18:01;;;;;;;52.33;37.20;;;;;;;;;;5100041;27;20526;-77
2021/12/05 14:20:26;;;;;;;56.65;38.58;;;;;;;;;;5100196;27;20026;-77
2021/12/05 14:22:52;;;;;;;65.20;40.78;;;;;;;;;;5099613;27;20376;-78
2021/12/05 14:25:21;;;;;;;49.20;32.55;;;;;;;;;;5099433;27;20023;-78
2021/12/05 14:27:58;;;;;;;50.90;33.53;;;;;;;;;;5105859;27;20023;-78
2021/12/05 14:30:26;;;;;;;88.10;56.33;;;;;;;;;;5096293;28;20355;-78
2021/12/05 14:32:58;;;;;;;88.15;53.35;;;;;;;;;;5098063;28;20070;-77
2021/12/05 14:35:32;;;;;;;60.92;40.15;;;;;;;;;;5096148;28;20024;-78
2021/12/05 14:37:57;;;;;;;51.60;34.22;;;;;;;;;;5095928;28;20077;-78
2021/12/05 14:40:30;;;;;;;66.30;41.67;;;;;;;;;;5095610;28;20028;-79
2021/12/05 14:42:59;;;;;;;59.40;37.35;;;;;;;;;;5097377;28;20055;-78
2021/12/05 14:45:26;;;;;;;63.13;39.92;;;;;;;;;;5097566;28;20050;-78
2021/12/05 14:47:52;;;;;;;62.50;41.33;;;;;;;;;;5095945;28;20081;-78
2021/12/05 14:50:21;;;;;;;100.35;54.17;;;;;;;;;;5098560;28;20494;-78
2021/12/05 14:52:49;;;;;;;51.03;30.85;;;;;;;;;;5097139;28;20028;-78
2021/12/05 14:55:17;;;;;;;48.25;29.83;;;;;;;;;;5095948;28;20027;-78
2021/12/05 14:57:49;;;;;;;66.05;39.53;;;;;;;;;;5096925;28;20122;-78
2021/12/05 15:00:18;;;;;;;60.50;38.92;;;;;;;;;;5097741;28;20095;-78
2021/12/05 15:02:43;;;;;;;50.60;31.73;;;;;;;;;;5095276;28;20023;-78
2021/12/05 15:05:13;;;;;;;51.53;32.53;;;;;;;;;;5095472;28;20385;-78
2021/12/05 15:07:39;;;;;;;58.92;36.70;;;;;;;;;;5095552;28;20019;-78
2021/12/05 15:10:05;;;;;;;56.20;37.00;;;;;;;;;;5095887;28;20523;-78
2021/12/05 15:12:33;;;;;;;51.83;33.95;;;;;;;;;;5096807;28;20796;-77
2021/12/05 15:15:00;;;;;;;53.97;34.45;;;;;;;;;;5095469;28;20023;-78
2021/12/05 15:17:27;;;;;;;50.50;31.73;;;;;;;;;;5097594;28;20023;-78
2021/12/05 15:19:55;;;;;;;52.08;30.55;;;;;;;;;;5094973;28;20489;-78
2021/12/05 15:22:20;;;;;;;48.60;33.50;;;;;;;;;;5096946;28;20480;-78
2021/12/05 15:24:50;;;;;;;56.78;37.25;;;;;;;;;;5095375;28;20027;-78
2021/12/05 15:27:17;;;;;;;49.80;33.67;;;;;;;;;;5095103;28;20023;-78
2021/12/05 15:29:47;;;;;;;53.25;34.58;;;;;;;;;;5096218;28;20436;-78
2021/12/05 15:32:17;;;;;;;47.15;31.60;;;;;;;;;;5096132;28;20022;-78
2021/12/05 15:34:42;;;;;;;;;;;;;;;;;;5095255;28;20027;-78
2021/12/05 15:37:10;;;;;;;53.67;36.60;;;;;;;;;;5094913;28;19961;-78
2021/12/05 15:39:37;;;;;;;47.53;33.35;;;;;;;;;;5094861;28;20423;-78
2021/12/05 15:42:12;;;;;;;58.65;37.25;;;;;;;;;;5096361;28;20064;-78
2021/12/05 15:44:39;;;;;;;57.22;39.67;;;;;;;;;;5096213;28;20023;-78
2021/12/05 15:47:15;;;;;;;61.58;40.42;;;;;;;;;;5096117;28;20027;-78
2021/12/05 15:49:49;;;;;;;53.67;36.70;;;;;;;;;;5095956;28;20032;-78
2021/12/05 15:52:15;;;;;;;55.45;37.10;;;;;;;;;;5096238;28;20530;-78
2021/12/05 15:54:44;;;;;;;54.85;33.13;;;;;;;;;;5095709;28;20420;-78
2021/12/05 15:57:16;;;;;;;57.10;31.08;;;;;;;;;;5095883;28;20135;-78
2021/12/05 15:59:46;;;;;;;54.83;33.65;;;;;;;;;;5094748;28;20065;-78
2021/12/05 16:02:11;;;;;;;;;;;;;;;;;;5094455;28;20031;-78
2021/12/05 16:04:39;;;;;;;48.70;29.88;;;;;;;;;;5096285;28;19961;-77
2021/12/05 16:07:08;;;;;;;52.92;35.58;;;;;;;;;;5096197;27;20020;-78
2021/12/05 16:09:34;;;;;;;50.40;34.42;;;;;;;;;;5094802;28;20466;-78
2021/12/05 16:12:20;;;;;;;52.22;35.58;;;;;;;;;;5095945;28;20028;-78
2021/12/05 16:14:52;;;;;;;53.03;32.85;;;;;;;;;;5092645;28;20067;-79
2021/12/05 16:17:20;;;;;;;52.45;32.53;;;;;;;;;;5094446;28;20027;-78
2021/12/05 16:20:06;;;;;;;55.22;34.13;;;;;;;;;;5094685;28;20109;-78
2021/12/05 16:22:32;;;;;;;57.80;36.67;;;;;;;;;;5095431;28;20015;-78
2021/12/05 16:24:57;;;;;;;54.63;33.00;;;;;;;;;;5095556;28;20372;-78
2021/12/05 16:27:22;;;;;;;49.92;31.80;;;;;;;;;;5094957;28;20485;-78
2021/12/05 16:29:48;;;;;;;55.88;32.95;;;;;;;;;;5094003;28;20529;-78
2021/12/05 16:32:14;;;;;;;62.65;37.20;;;;;;;;;;5093961;28;20023;-78
2021/12/05 16:34:43;;;;;;;76.55;44.42;;;;;;;;;;5093950;28;20939;-77
2021/12/05 16:37:09;;;;;;;74.70;44.63;;;;;;;;;;5094293;27;20701;-77
2021/12/05 16:39:36;;;;;;;69.47;42.03;;;;;;;;;;5114414;27;20571;-78
2021/12/05 16:42:21;;;;;;;93.60;49.50;;;;;;;;;;5089555;28;20454;-76
2021/12/05 16:44:57;;;;;;;62.33;36.78;;;;;;;;;;5110481;28;20127;-77
2021/12/05 16:47:28;;;;;;;58.33;34.03;;;;;;;;;;5092564;28;20473;-76
2021/12/05 16:49:54;;;;;;;63.15;40.22;;;;;;;;;;5091974;28;20027;-76
2021/12/05 16:52:20;;;;;;;99.72;56.28;;;;;;;;;;5111793;27;20027;-76
2021/12/05 16:54:47;;;;;;;98.78;60.05;;;;;;;;;;5095192;27;20052;-77
2021/12/05 16:57:19;;;;;;;119.03;73.70;;;;;;;;;;5087056;28;20056;-76
2021/12/05 16:59:47;;;;;;;140.85;88.30;;;;;;;;;;5082984;28;20063;-76
2021/12/05 17:02:12;;;;;;;101.38;58.92;;;;;;;;;;5083336;28;20027;-75
2021/12/05 17:04:49;;;;;;;99.32;61.30;;;;;;;;;;5094443;28;20034;-76
2021/12/05 17:07:17;;;;;;;83.43;47.50;;;;;;;;;;5094993;28;20057;-77
2021/12/05 17:09:43;;;;;;;70.45;40.75;;;;;;;;;;5083391;28;20027;-75
2021/12/05 17:12:25;;;;;;;98.47;56.15;;;;;;;;;;5094941;28;20027;-76
2021/12/05 17:14:50;;;;;;;77.13;43.25;;;;;;;;;;5095057;28;20095;-76
2021/12/05 17:17:30;;;;;;;123.18;62.22;;;;;;;;;;5094951;28;20723;-77
2021/12/05 17:19:55;;;;;;;137.35;70.68;;;;;;;;;;5094613;28;20031;-76
2021/12/05 17:22:20;;;;;;;98.63;50.55;;;;;;;;;;5093337;28;20027;-76
2021/12/05 17:24:47;;;;;;;82.40;43.90;;;;;;;;;;5095059;28;20520;-76
2021/12/05 17:27:16;;;;;;;106.93;54.47;;;;;;;;;;5094374;28;20034;-76
2021/12/05 17:29:43;;;;;;;109.10;55.60;;;;;;;;;;5093084;28;20395;-77
2021/12/05 17:32:10;;;;;;;95.90;50.65;;;;;;;;;;5094238;28;20454;-76
2021/12/05 17:34:37;;;;;;;93.70;47.85;;;;;;;;;;5094231;28;20444;-77
2021/12/05 17:37:05;;;;;;;67.70;34.85;;;;;;;;;;5082756;28;20031;-77
2021/12/05 17:39:32;;;;;;;66.18;37.17;;;;;;;;;;5094275;28;20082;-77
2021/12/05 17:41:59;;;;;;;86.43;49.60;;;;;;;;;;5094263;28;20024;-77
2021/12/05 17:44:25;;;;;;;113.78;58.20;;;;;;;;;;5094449;28;20131;-77
2021/12/05 17:46:52;;;;;;;81.35;45.53;;;;;;;;;;5094992;28;20570;-76
2021/12/05 17:49:18;;;;;;;78.00;43.70;;;;;;;;;;5082754;28;20111;-76
2021/12/05 17:51:44;;;;;;;105.82;63.53;;;;;;;;;;5094357;28;20110;-77
2021/12/05 17:54:11;;;;;;;66.00;38.85;;;;;;;;;;5094434;28;20035;-76
2021/12/05 17:57:05;;;;;;;58.58;36.15;;;;;;;;;;5082565;28;20078;-77
2021/12/05 17:59:36;;;;;;;70.53;41.25;;;;;;;;;;5093791;28;20045;-77
2021/12/05 18:04:49;;;;;;;52.22;30.73;;;;;;;;;;5088843;28;20333;-76
2021/12/05 18:07:15;;;;;;;51.85;31.55;;;;;;;;;;5093894;28;20027;-77
2021/12/05 18:09:41;;;;;;;57.03;32.47;;;;;;;;;;5080309;28;20718;-76
2021/12/05 18:12:12;;;;;;;56.42;32.90;;;;;;;;;;5093443;28;20039;-77
2021/12/05 18:14:47;;;;;;;53.38;32.08;;;;;;;;;;5093829;28;20088;-76
2021/12/05 18:17:13;;;;;;;55.75;33.25;;;;;;;;;;5080897;28;20096;-76
2021/12/05 18:19:38;;;;;;;60.30;34.72;;;;;;;;;;5093055;28;20023;-77
2021/12/05 18:22:04;;;;;;;62.47;36.13;;;;;;;;;;5080581;28;20466;-76
2021/12/05 18:24:30;;;;;;;61.83;35.30;;;;;;;;;;5092645;28;20076;-77
2021/12/05 18:26:55;;;;;;;57.97;33.72;;;;;;;;;;5093149;28;20039;-77
2021/12/05 18:29:22;;;;;;;54.70;32.85;;;;;;;;;;5082199;28;20062;-77
2021/12/05 18:31:48;;;;;;;54.80;33.63;;;;;;;;;;5094002;28;20031;-77
2021/12/05 18:34:18;;;;;;;71.18;43.63;;;;;;;;;;5093809;28;20027;-77
2021/12/05 18:36:43;;;;;;;80.95;46.13;;;;;;;;;;5093391;28;20424;-76
2021/12/05 18:39:11;;;;;;;71.25;40.35;;;;;;;;;;5082775;28;20019;-77
2021/12/05 18:41:38;;;;;;;55.90;31.05;;;;;;;;;;5093316;28;20030;-76
2021/12/05 18:44:09;;;;;;;56.85;34.22;;;;;;;;;;5083074;28;20393;-77
2021/12/05 18:46:35;;;;;;;68.05;36.75;;;;;;;;;;5092847;28;20030;-76
2021/12/05 18:49:00;;;;;;;63.90;36.53;;;;;;;;;;5092905;28;20032;-76
2021/12/05 18:51:25;;;;;;;62.22;35.85;;;;;;;;;;5093351;28;20016;-76
2021/12/05 18:53:51;;;;;;;55.40;30.30;;;;;;;;;;5081785;28;20023;-76
2021/12/05 18:56:17;;;;;;;60.47;32.50;;;;;;;;;;5093863;27;20034;-76
2021/12/05 18:58:43;;;;;;;154.93;54.45;;;;;;;;;;5084372;27;20412;-76
2021/12/05 19:06:47;;;;;;;88.07;44.95;;;;;;;;;;5103280;27;20034;-76
2021/12/05 19:09:24;;;;;;;60.22;31.50;;;;;;;;;;5084566;27;20028;-76
2021/12/05 19:11:55;;;;;;;62.70;35.65;;;;;;;;;;5086807;27;20518;-75
2021/12/05 19:14:27;;;;;;;63.83;37.15;;;;;;;;;;5102119;27;20749;-76
2021/12/05 19:16:55;;;;;;;60.70;37.15;;;;;;;;;;5083422;27;20023;-76
2021/12/05 19:19:20;;;;;;;52.83;28.90;;;;;;;;;;5102621;27;20031;-75
2021/12/05 19:21:47;;;;;;;57.78;32.42;;;;;;;;;;5078397;28;20026;-77
2021/12/05 19:24:13;;;;;;;48.85;28.58;;;;;;;;;;5072873;28;20036;-76
2021/12/05 19:26:39;;;;;;;48.70;28.10;;;;;;;;;;5073843;28;20028;-77
2021/12/05 19:29:04;;;;;;;51.15;29.38;;;;;;;;;;5081771;28;20035;-76
2021/12/05 19:31:29;;;;;;;53.70;29.40;;;;;;;;;;5077871;28;20020;-77
2021/12/05 19:33:55;;;;;;;49.75;27.90;;;;;;;;;;5077872;28;20031;-77
2021/12/05 19:36:21;;;;;;;64.57;34.67;;;;;;;;;;5096311;28;20035;-77
2021/12/05 19:38:47;;;;;;;55.42;29.70;;;;;;;;;;5096206;28;20412;-78
2021/12/05 19:41:14;;;;;;;51.63;28.30;;;;;;;;;;5095973;28;20053;-77
2021/12/05 19:43:40;;;;;;;53.25;25.77;;;;;;;;;;5077977;28;20065;-77
2021/12/05 19:46:07;;;;;;;48.05;27.20;;;;;;;;;;5077322;27;20062;-76
2021/12/05 19:48:33;;;;;;;54.75;29.95;;;;;;;;;;5101885;27;20070;-77
2021/12/05 19:50:59;;;;;;;50.92;27.98;;;;;;;;;;5102478;27;20023;-75
2021/12/05 19:53:25;;;;;;;44.22;24.83;;;;;;;;;;5083013;27;20035;-76